sensor_id;sensor_type;location;lat;lon;timestamp;pressure;altitude;pressure_sealevel;temperature;humidity
23339;BME280;11841;49.368;20.962;2023-05-16T00:00:09;95304.66;;;10.82;97.59
23339;BME280;11841;49.368;20.962;2023-05-16T00:02:55;95312.97;;;10.85;98.36
23339;BME280;11841;49.368;20.962;2023-05-16T00:05:41;95319.66;;;10.88;99.34
23339;BME280;11841;49.368;20.962;2023-05-16T00:08:27;95321.06;;;10.90;100.00
23339;BME280;11841;49.368;20.962;2023-05-16T00:11:12;95325.91;;;10.93;100.00
23339;BME280;11841;49.368;20.962;2023-05-16T00:13:57;95322.22;;;10.94;100.00
23339;BME280;11841;49.368;20.962;2023-05-16T00:16:43;95318.78;;;10.94;100.00
23339;BME280;11841;49.368;20.962;2023-05-16T00:19:28;95320.38;;;10.95;100.00
23339;BME280;11841;49.368;20.962;2023-05-16T00:22:14;95333.16;;;10.98;100.00
23339;BME280;11841;49.368;20.962;2023-05-16T00:24:59;95335.69;;;10.93;100.00
23339;BME280;11841;49.368;20.962;2023-05-16T00:27:45;95333.63;;;10.95;100.00
23339;BME280;11841;49.368;20.962;2023-05-16T00:30:30;95331.34;;;10.98;100.00
23339;BME280;11841;49.368;20.962;2023-05-16T00:33:15;95327.44;;;11.01;100.00
23339;BME280;11841;49.368;20.962;2023-05-16T00:36:00;95333.88;;;11.05;100.00
23339;BME280;11841;49.368;20.962;2023-05-16T00:38:46;95332.41;;;11.09;100.00
23339;BME280;11841;49.368;20.962;2023-05-16T00:41:33;95330.75;;;11.08;100.00
23339;BME280;11841;49.368;20.962;2023-05-16T00:44:18;95325.25;;;11.10;100.00
23339;BME280;11841;49.368;20.962;2023-05-16T00:47:03;95319.81;;;11.05;100.00
23339;BME280;11841;49.368;20.962;2023-05-16T00:49:49;95313.72;;;11.04;100.00
23339;BME280;11841;49.368;20.962;2023-05-16T00:52:34;95319.59;;;11.06;100.00
23339;BME280;11841;49.368;20.962;2023-05-16T00:55:20;95307.34;;;11.05;100.00
23339;BME280;11841;49.368;20.962;2023-05-16T00:58:05;95310.00;;;11.05;100.00
23339;BME280;11841;49.368;20.962;2023-05-16T01:00:51;95314.28;;;11.06;100.00
23339;BME280;11841;49.368;20.962;2023-05-16T01:03:37;95319.94;;;11.10;100.00
23339;BME280;11841;49.368;20.962;2023-05-16T01:06:23;95313.72;;;11.04;100.00
23339;BME280;11841;49.368;20.962;2023-05-16T01:09:09;95311.28;;;11.03;100.00
23339;BME280;11841;49.368;20.962;2023-05-16T01:15:11;95318.09;;;11.10;100.00
23339;BME280;11841;49.368;20.962;2023-05-16T01:18:06;95330.88;;;11.13;100.00
23339;BME280;11841;49.368;20.962;2023-05-16T01:20:59;95335.41;;;11.13;100.00
23339;BME280;11841;49.368;20.962;2023-05-16T01:23:51;95324.78;;;11.13;100.00
23339;BME280;11841;49.368;20.962;2023-05-16T01:26:44;95328.47;;;11.12;100.00
23339;BME280;11841;49.368;20.962;2023-05-16T01:29:31;95329.03;;;11.14;100.00
23339;BME280;11841;49.368;20.962;2023-05-16T01:32:16;95329.88;;;11.14;100.00
23339;BME280;11841;49.368;20.962;2023-05-16T01:35:01;95337.38;;;11.17;100.00
23339;BME280;11841;49.368;20.962;2023-05-16T01:41:10;95342.19;;;11.20;100.00
23339;BME280;11841;49.368;20.962;2023-05-16T01:44:00;95355.22;;;11.10;100.00
23339;BME280;11841;49.368;20.962;2023-05-16T01:46:51;95353.16;;;11.12;100.00
23339;BME280;11841;49.368;20.962;2023-05-16T01:55:46;95336.19;;;11.13;100.00
23339;BME280;11841;49.368;20.962;2023-05-16T01:58:32;95333.69;;;11.18;100.00
23339;BME280;11841;49.368;20.962;2023-05-16T02:01:19;95327.91;;;11.21;100.00
23339;BME280;11841;49.368;20.962;2023-05-16T02:04:04;95331.34;;;11.22;100.00
23339;BME280;11841;49.368;20.962;2023-05-16T02:06:50;95338.88;;;11.25;100.00
23339;BME280;11841;49.368;20.962;2023-05-16T02:09:36;95333.56;;;11.25;100.00
23339;BME280;11841;49.368;20.962;2023-05-16T02:12:21;95330.34;;;11.23;100.00
23339;BME280;11841;49.368;20.962;2023-05-16T02:15:07;95330.34;;;11.23;100.00
23339;BME280;11841;49.368;20.962;2023-05-16T02:17:53;95329.53;;;11.22;100.00
23339;BME280;11841;49.368;20.962;2023-05-16T02:20:39;95330.56;;;11.21;100.00
23339;BME280;11841;49.368;20.962;2023-05-16T02:23:24;95326.75;;;11.17;100.00
23339;BME280;11841;49.368;20.962;2023-05-16T02:26:09;95324.09;;;11.17;100.00
23339;BME280;11841;49.368;20.962;2023-05-16T02:28:55;95330.44;;;11.16;100.00
23339;BME280;11841;49.368;20.962;2023-05-16T02:31:40;95336.53;;;11.17;100.00
23339;BME280;11841;49.368;20.962;2023-05-16T02:34:26;95343.72;;;11.16;100.00
23339;BME280;11841;49.368;20.962;2023-05-16T02:37:12;95333.34;;;11.15;100.00
23339;BME280;11841;49.368;20.962;2023-05-16T02:39:57;95344.72;;;11.15;100.00
23339;BME280;11841;49.368;20.962;2023-05-16T02:42:42;95350.28;;;11.14;100.00
23339;BME280;11841;49.368;20.962;2023-05-16T02:45:28;95347.84;;;11.12;100.00
23339;BME280;11841;49.368;20.962;2023-05-16T02:48:13;95346.81;;;11.13;100.00
23339;BME280;11841;49.368;20.962;2023-05-16T02:50:58;95352.09;;;11.13;100.00
23339;BME280;11841;49.368;20.962;2023-05-16T02:53:43;95358.34;;;11.07;100.00
23339;BME280;11841;49.368;20.962;2023-05-16T02:56:29;95354.88;;;11.07;100.00
23339;BME280;11841;49.368;20.962;2023-05-16T02:59:14;95354.16;;;10.99;100.00
23339;BME280;11841;49.368;20.962;2023-05-16T03:01:59;95355.56;;;11.02;100.00
23339;BME280;11841;49.368;20.962;2023-05-16T03:04:45;95353.03;;;11.07;100.00
23339;BME280;11841;49.368;20.962;2023-05-16T03:07:30;95348.53;;;11.08;100.00
23339;BME280;11841;49.368;20.962;2023-05-16T03:10:15;95346.13;;;11.06;100.00
23339;BME280;11841;49.368;20.962;2023-05-16T03:13:00;95355.81;;;11.12;100.00
23339;BME280;11841;49.368;20.962;2023-05-16T03:15:46;95364.34;;;11.14;100.00
23339;BME280;11841;49.368;20.962;2023-05-16T03:18:31;95364.34;;;11.14;100.00
23339;BME280;11841;49.368;20.962;2023-05-16T03:21:17;95367.25;;;11.13;100.00
23339;BME280;11841;49.368;20.962;2023-05-16T03:24:02;95375.44;;;11.11;100.00
23339;BME280;11841;49.368;20.962;2023-05-16T03:26:48;95364.47;;;11.08;100.00
23339;BME280;11841;49.368;20.962;2023-05-16T03:29:34;95371.59;;;11.07;100.00
23339;BME280;11841;49.368;20.962;2023-05-16T03:32:19;95369.31;;;11.11;100.00
23339;BME280;11841;49.368;20.962;2023-05-16T03:35:05;95375.44;;;11.11;100.00
23339;BME280;11841;49.368;20.962;2023-05-16T03:37:50;95378.31;;;11.10;100.00
23339;BME280;11841;49.368;20.962;2023-05-16T03:40:35;95378.31;;;11.10;100.00
23339;BME280;11841;49.368;20.962;2023-05-16T03:43:21;95368.94;;;11.07;100.00
23339;BME280;11841;49.368;20.962;2023-05-16T03:46:06;95367.09;;;10.96;100.00
23339;BME280;11841;49.368;20.962;2023-05-16T03:48:52;95367.72;;;10.80;100.00
23339;BME280;11841;49.368;20.962;2023-05-16T03:51:37;95375.09;;;10.78;100.00
23339;BME280;11841;49.368;20.962;2023-05-16T03:54:22;95388.03;;;10.86;100.00
23339;BME280;11841;49.368;20.962;2023-05-16T03:57:07;95385.59;;;10.84;100.00
23339;BME280;11841;49.368;20.962;2023-05-16T03:59:53;95363.97;;;10.87;100.00
23339;BME280;11841;49.368;20.962;2023-05-16T04:02:39;95370.63;;;10.90;100.00
23339;BME280;11841;49.368;20.962;2023-05-16T04:05:24;95383.66;;;10.91;100.00
23339;BME280;11841;49.368;20.962;2023-05-16T04:08:10;95372.16;;;10.98;100.00
23339;BME280;11841;49.368;20.962;2023-05-16T04:10:55;95378.97;;;11.05;100.00
23339;BME280;11841;49.368;20.962;2023-05-16T04:13:41;95386.94;;;11.05;100.00
23339;BME280;11841;49.368;20.962;2023-05-16T04:16:26;95386.69;;;11.07;100.00
23339;BME280;11841;49.368;20.962;2023-05-16T04:19:11;95396.53;;;11.06;100.00
23339;BME280;11841;49.368;20.962;2023-05-16T04:21:57;95391.44;;;11.05;100.00
23339;BME280;11841;49.368;20.962;2023-05-16T04:24:42;95395.13;;;11.04;100.00
23339;BME280;11841;49.368;20.962;2023-05-16T04:27:27;95402.50;;;11.02;100.00
23339;BME280;11841;49.368;20.962;2023-05-16T04:30:13;95401.72;;;11.01;100.00
23339;BME280;11841;49.368;20.962;2023-05-16T04:32:58;95400.06;;;11.00;100.00
23339;BME280;11841;49.368;20.962;2023-05-16T04:35:43;95399.34;;;10.93;100.00
23339;BME280;11841;49.368;20.962;2023-05-16T04:38:29;95406.28;;;10.94;100.00
23339;BME280;11841;49.368;20.962;2023-05-16T04:41:15;95405.13;;;10.90;100.00
23339;BME280;11841;49.368;20.962;2023-05-16T04:44:03;95393.25;;;10.92;100.00
23339;BME280;11841;49.368;20.962;2023-05-16T04:46:49;95404.44;;;10.94;100.00
23339;BME280;11841;49.368;20.962;2023-05-16T04:49:34;95403.78;;;10.99;100.00
23339;BME280;11841;49.368;20.962;2023-05-16T04:52:19;95402.06;;;11.05;100.00
23339;BME280;11841;49.368;20.962;2023-05-16T04:55:05;95411.16;;;11.09;100.00
23339;BME280;11841;49.368;20.962;2023-05-16T04:57:51;95399.88;;;11.13;100.00
23339;BME280;11841;49.368;20.962;2023-05-16T05:00:36;95387.66;;;11.12;100.00
23339;BME280;11841;49.368;20.962;2023-05-16T05:03:22;95379.19;;;10.92;100.00
23339;BME280;11841;49.368;20.962;2023-05-16T05:06:07;95393.97;;;10.70;100.00
23339;BME280;11841;49.368;20.962;2023-05-16T05:08:53;95393.53;;;10.73;100.00
23339;BME280;11841;49.368;20.962;2023-05-16T05:11:38;95395.84;;;10.81;100.00
23339;BME280;11841;49.368;20.962;2023-05-16T05:14:24;95411.69;;;10.87;100.00
23339;BME280;11841;49.368;20.962;2023-05-16T05:17:09;95414.84;;;10.96;100.00
23339;BME280;11841;49.368;20.962;2023-05-16T05:19:54;95403.78;;;10.99;100.00
23339;BME280;11841;49.368;20.962;2023-05-16T05:22:40;95419.59;;;11.06;100.00
23339;BME280;11841;49.368;20.962;2023-05-16T05:25:25;95417.28;;;11.09;100.00
23339;BME280;11841;49.368;20.962;2023-05-16T05:28:10;95419.84;;;10.86;100.00
23339;BME280;11841;49.368;20.962;2023-05-16T05:30:56;95434.16;;;10.85;100.00
23339;BME280;11841;49.368;20.962;2023-05-16T05:33:41;95439.59;;;10.90;100.00
23339;BME280;11841;49.368;20.962;2023-05-16T05:36:26;95430.31;;;10.81;100.00
23339;BME280;11841;49.368;20.962;2023-05-16T05:39:12;95430.19;;;10.76;100.00
23339;BME280;11841;49.368;20.962;2023-05-16T05:41:57;95429.53;;;10.80;100.00
23339;BME280;11841;49.368;20.962;2023-05-16T05:44:42;95426.06;;;10.80;100.00
23339;BME280;11841;49.368;20.962;2023-05-16T05:47:28;95438.28;;;10.81;100.00
23339;BME280;11841;49.368;20.962;2023-05-16T05:50:13;95430.47;;;10.86;100.00
23339;BME280;11841;49.368;20.962;2023-05-16T05:52:59;95445.25;;;10.93;100.00
23339;BME280;11841;49.368;20.962;2023-05-16T05:55:44;95444.56;;;10.98;100.00
23339;BME280;11841;49.368;20.962;2023-05-16T05:58:29;95451.88;;;11.03;100.00
23339;BME280;11841;49.368;20.962;2023-05-16T06:01:14;95458.34;;;11.07;100.00
23339;BME280;11841;49.368;20.962;2023-05-16T06:04:00;95462.84;;;11.06;100.00
23339;BME280;11841;49.368;20.962;2023-05-16T06:06:46;95470.13;;;11.11;100.00
23339;BME280;11841;49.368;20.962;2023-05-16T06:09:32;95467.97;;;11.19;100.00
23339;BME280;11841;49.368;20.962;2023-05-16T06:12:17;95467.41;;;11.29;100.00
23339;BME280;11841;49.368;20.962;2023-05-16T06:15:02;95468.44;;;11.28;100.00
23339;BME280;11841;49.368;20.962;2023-05-16T06:17:48;95464.84;;;11.22;100.00
23339;BME280;11841;49.368;20.962;2023-05-16T06:20:34;95459.31;;;11.24;100.00
23339;BME280;11841;49.368;20.962;2023-05-16T06:23:19;95462.41;;;11.21;100.00
23339;BME280;11841;49.368;20.962;2023-05-16T06:26:05;95473.25;;;11.19;100.00
23339;BME280;11841;49.368;20.962;2023-05-16T06:28:50;95456.06;;;11.22;100.00
23339;BME280;11841;49.368;20.962;2023-05-16T06:31:35;95461.19;;;11.35;100.00
23339;BME280;11841;49.368;20.962;2023-05-16T06:34:20;95447.59;;;11.43;100.00
23339;BME280;11841;49.368;20.962;2023-05-16T06:37:11;95448.66;;;11.53;100.00
23339;BME280;11841;49.368;20.962;2023-05-16T06:39:57;95432.97;;;11.63;100.00
23339;BME280;11841;49.368;20.962;2023-05-16T06:42:43;95437.97;;;11.71;100.00
23339;BME280;11841;49.368;20.962;2023-05-16T06:45:28;95437.06;;;11.77;100.00
23339;BME280;11841;49.368;20.962;2023-05-16T06:48:14;95434.75;;;11.81;100.00
23339;BME280;11841;49.368;20.962;2023-05-16T06:50:59;95442.03;;;11.85;100.00
23339;BME280;11841;49.368;20.962;2023-05-16T06:53:45;95446.75;;;11.95;100.00
23339;BME280;11841;49.368;20.962;2023-05-16T06:56:31;95450.91;;;12.02;100.00
23339;BME280;11841;49.368;20.962;2023-05-16T06:59:16;95456.34;;;12.07;100.00
23339;BME280;11841;49.368;20.962;2023-05-16T07:02:02;95451.38;;;12.11;100.00
23339;BME280;11841;49.368;20.962;2023-05-16T07:04:47;95456.22;;;12.14;100.00
23339;BME280;11841;49.368;20.962;2023-05-16T07:07:32;95455.75;;;12.17;100.00
23339;BME280;11841;49.368;20.962;2023-05-16T07:10:17;95453.44;;;12.21;100.00
23339;BME280;11841;49.368;20.962;2023-05-16T07:13:03;95450.22;;;12.30;100.00
23339;BME280;11841;49.368;20.962;2023-05-16T07:15:49;95458.63;;;12.39;100.00
23339;BME280;11841;49.368;20.962;2023-05-16T07:18:34;95453.97;;;12.46;100.00
23339;BME280;11841;49.368;20.962;2023-05-16T07:21:20;95454.19;;;12.56;100.00
23339;BME280;11841;49.368;20.962;2023-05-16T07:24:06;95454.88;;;12.63;100.00
23339;BME280;11841;49.368;20.962;2023-05-16T07:26:51;95459.84;;;12.71;100.00
23339;BME280;11841;49.368;20.962;2023-05-16T07:29:37;95462.69;;;12.81;100.00
23339;BME280;11841;49.368;20.962;2023-05-16T07:32:22;95460.13;;;12.86;98.49
23339;BME280;11841;49.368;20.962;2023-05-16T07:35:09;95461.94;;;12.97;97.72
23339;BME280;11841;49.368;20.962;2023-05-16T07:37:55;95459.41;;;13.02;96.36
23339;BME280;11841;49.368;20.962;2023-05-16T07:40:40;95449.44;;;13.09;95.67
23339;BME280;11841;49.368;20.962;2023-05-16T07:43:25;95454.94;;;13.19;95.55
23339;BME280;11841;49.368;20.962;2023-05-16T07:46:12;95457.19;;;13.27;95.61
23339;BME280;11841;49.368;20.962;2023-05-16T07:48:58;95460.53;;;13.34;95.13
23339;BME280;11841;49.368;20.962;2023-05-16T07:51:43;95457.50;;;13.42;95.10
23339;BME280;11841;49.368;20.962;2023-05-16T07:54:29;95460.78;;;13.49;94.39
23339;BME280;11841;49.368;20.962;2023-05-16T07:57:15;95460.66;;;13.56;93.97
23339;BME280;11841;49.368;20.962;2023-05-16T08:00:01;95458.63;;;13.63;94.17
23339;BME280;11841;49.368;20.962;2023-05-16T08:02:48;95461.94;;;13.70;93.21
23339;BME280;11841;49.368;20.962;2023-05-16T08:05:33;95457.59;;;13.80;92.98
23339;BME280;11841;49.368;20.962;2023-05-16T08:08:19;95460.91;;;13.87;92.54
23339;BME280;11841;49.368;20.962;2023-05-16T08:11:04;95455.41;;;13.94;93.23
23339;BME280;11841;49.368;20.962;2023-05-16T08:13:50;95464.13;;;14.06;92.95
23339;BME280;11841;49.368;20.962;2023-05-16T08:16:35;95462.34;;;14.11;92.47
23339;BME280;11841;49.368;20.962;2023-05-16T08:19:21;95467.94;;;14.26;92.20
23339;BME280;11841;49.368;20.962;2023-05-16T08:22:07;95470.22;;;14.39;90.47
23339;BME280;11841;49.368;20.962;2023-05-16T08:24:53;95468.84;;;14.53;89.67
23339;BME280;11841;49.368;20.962;2023-05-16T08:27:41;95470.63;;;14.70;87.17
23339;BME280;11841;49.368;20.962;2023-05-16T08:30:29;95468.91;;;14.80;86.24
23339;BME280;11841;49.368;20.962;2023-05-16T08:33:14;95459.16;;;14.91;85.14
23339;BME280;11841;49.368;20.962;2023-05-16T08:36:00;95451.78;;;14.98;84.74
23339;BME280;11841;49.368;20.962;2023-05-16T08:38:46;95456.66;;;15.06;84.12
23339;BME280;11841;49.368;20.962;2023-05-16T08:41:32;95454.16;;;15.21;84.07
23339;BME280;11841;49.368;20.962;2023-05-16T08:44:17;95453.69;;;15.29;82.07
23339;BME280;11841;49.368;20.962;2023-05-16T08:47:11;95459.13;;;15.34;80.50
23339;BME280;11841;49.368;20.962;2023-05-16T08:49:59;95454.38;;;15.41;81.63
23339;BME280;11841;49.368;20.962;2023-05-16T08:52:50;95452.88;;;15.50;81.77
23339;BME280;11841;49.368;20.962;2023-05-16T08:55:37;95456.72;;;15.59;81.55
23339;BME280;11841;49.368;20.962;2023-05-16T08:58:24;95461.06;;;15.70;81.22
23339;BME280;11841;49.368;20.962;2023-05-16T09:01:09;95460.59;;;15.78;78.58
23339;BME280;11841;49.368;20.962;2023-05-16T09:03:55;95470.28;;;15.84;77.25
23339;BME280;11841;49.368;20.962;2023-05-16T09:06:41;95462.81;;;15.86;78.03
23339;BME280;11841;49.368;20.962;2023-05-16T09:09:26;95456.97;;;15.89;77.50
23339;BME280;11841;49.368;20.962;2023-05-16T09:12:11;95460.41;;;15.85;76.15
23339;BME280;11841;49.368;20.962;2023-05-16T09:14:57;95462.81;;;15.86;76.44
23339;BME280;11841;49.368;20.962;2023-05-16T09:17:44;95462.56;;;15.88;77.15
23339;BME280;11841;49.368;20.962;2023-05-16T09:20:31;95469.25;;;15.90;77.71
23339;BME280;11841;49.368;20.962;2023-05-16T09:23:23;95462.59;;;15.93;77.32
23339;BME280;11841;49.368;20.962;2023-05-16T09:26:09;95473.81;;;15.90;75.16
23339;BME280;11841;49.368;20.962;2023-05-16T09:28:54;95481.03;;;15.89;74.60
23339;BME280;11841;49.368;20.962;2023-05-16T09:31:40;95468.69;;;15.83;74.08
23339;BME280;11841;49.368;20.962;2023-05-16T09:34:25;95471.59;;;15.82;74.97
23339;BME280;11841;49.368;20.962;2023-05-16T09:37:11;95479.38;;;15.83;75.57
23339;BME280;11841;49.368;20.962;2023-05-16T09:39:57;95470.81;;;15.81;75.04
23339;BME280;11841;49.368;20.962;2023-05-16T09:42:42;95457.94;;;15.78;74.62
23339;BME280;11841;49.368;20.962;2023-05-16T09:45:29;95461.66;;;15.77;75.74
23339;BME280;11841;49.368;20.962;2023-05-16T09:48:15;95472.31;;;15.72;74.78
23339;BME280;11841;49.368;20.962;2023-05-16T09:51:05;95462.16;;;15.69;75.27
23339;BME280;11841;49.368;20.962;2023-05-16T09:53:50;95463.75;;;15.70;75.40
23339;BME280;11841;49.368;20.962;2023-05-16T09:56:48;95463.22;;;15.73;76.25
23339;BME280;11841;49.368;20.962;2023-05-16T09:59:35;95462.75;;;15.76;76.37
23339;BME280;11841;49.368;20.962;2023-05-16T10:02:21;95462.75;;;15.76;76.51
23339;BME280;11841;49.368;20.962;2023-05-16T10:05:07;95459.25;;;15.76;76.95
23339;BME280;11841;49.368;20.962;2023-05-16T10:07:56;95464.34;;;15.77;77.04
23339;BME280;11841;49.368;20.962;2023-05-16T10:10:42;95455.31;;;15.83;76.99
23339;BME280;11841;49.368;20.962;2023-05-16T10:13:29;95448.69;;;15.91;76.82
23339;BME280;11841;49.368;20.962;2023-05-16T10:16:15;95460.78;;;15.98;78.03
23339;BME280;11841;49.368;20.962;2023-05-16T10:19:02;95446.91;;;16.01;77.23
23339;BME280;11841;49.368;20.962;2023-05-16T10:21:50;95447.44;;;16.03;76.64
23339;BME280;11841;49.368;20.962;2023-05-16T10:27:23;95442.66;;;16.05;77.03
23339;BME280;11841;49.368;20.962;2023-05-16T10:30:09;95448.03;;;16.10;76.73
23339;BME280;11841;49.368;20.962;2023-05-16T10:32:56;95453.38;;;16.10;77.14
23339;BME280;11841;49.368;20.962;2023-05-16T10:35:42;95450.75;;;16.15;77.01
23339;BME280;11841;49.368;20.962;2023-05-16T10:38:28;95450.22;;;16.18;76.74
23339;BME280;11841;49.368;20.962;2023-05-16T10:41:15;95456.13;;;16.20;76.50
23339;BME280;11841;49.368;20.962;2023-05-16T10:44:00;95455.84;;;16.17;75.71
23339;BME280;11841;49.368;20.962;2023-05-16T10:46:47;95447.00;;;16.16;76.07
23339;BME280;11841;49.368;20.962;2023-05-16T10:49:32;95448.84;;;16.16;75.26
23339;BME280;11841;49.368;20.962;2023-05-16T10:52:17;95451.25;;;16.12;75.56
23339;BME280;11841;49.368;20.962;2023-05-16T10:55:03;95450.72;;;16.10;76.37
23339;BME280;11841;49.368;20.962;2023-05-16T10:57:49;95448.53;;;16.07;76.12
23339;BME280;11841;49.368;20.962;2023-05-16T11:00:34;95451.16;;;16.02;75.86
23339;BME280;11841;49.368;20.962;2023-05-16T11:03:23;95440.47;;;16.02;75.67
23339;BME280;11841;49.368;20.962;2023-05-16T11:06:12;95445.81;;;16.02;75.83
23339;BME280;11841;49.368;20.962;2023-05-16T11:11:58;95451.16;;;16.02;76.80
23339;BME280;11841;49.368;20.962;2023-05-16T11:14:50;95446.94;;;16.06;76.26
23339;BME280;11841;49.368;20.962;2023-05-16T11:17:38;95442.13;;;16.08;76.30
23339;BME280;11841;49.368;20.962;2023-05-16T11:20:31;95441.63;;;16.11;76.62
23339;BME280;11841;49.368;20.962;2023-05-16T11:23:24;95437.56;;;16.09;75.71
23339;BME280;11841;49.368;20.962;2023-05-16T11:26:10;95441.63;;;16.11;76.69
23339;BME280;11841;49.368;20.962;2023-05-16T11:28:55;95445.41;;;16.15;76.49
23339;BME280;11841;49.368;20.962;2023-05-16T11:31:42;95440.53;;;16.12;75.58
23339;BME280;11841;49.368;20.962;2023-05-16T11:34:28;95436.00;;;16.13;76.49
23339;BME280;11841;49.368;20.962;2023-05-16T11:37:14;95440.34;;;16.19;77.26
23339;BME280;11841;49.368;20.962;2023-05-16T11:40:05;95442.75;;;16.20;77.39
23339;BME280;11841;49.368;20.962;2023-05-16T11:42:58;95449.72;;;16.21;79.39
23339;BME280;11841;49.368;20.962;2023-05-16T11:45:44;95451.84;;;16.19;80.58
23339;BME280;11841;49.368;20.962;2023-05-16T11:48:30;95452.34;;;16.16;81.31
23339;BME280;11841;49.368;20.962;2023-05-16T11:51:21;95451.47;;;16.06;82.16
23339;BME280;11841;49.368;20.962;2023-05-16T11:54:08;95450.13;;;16.03;83.46
23339;BME280;11841;49.368;20.962;2023-05-16T11:56:54;95452.81;;;16.03;83.80
23339;BME280;11841;49.368;20.962;2023-05-16T11:59:40;95455.78;;;16.07;84.11
23339;BME280;11841;49.368;20.962;2023-05-16T12:02:27;95469.44;;;16.10;84.04
23339;BME280;11841;49.368;20.962;2023-05-16T12:05:14;95467.81;;;16.09;84.43
23339;BME280;11841;49.368;20.962;2023-05-16T12:08:01;95466.22;;;16.08;86.00
23339;BME280;11841;49.368;20.962;2023-05-16T12:10:49;95464.00;;;16.00;87.37
23339;BME280;11841;49.368;20.962;2023-05-16T12:13:35;95458.06;;;15.93;87.79
23339;BME280;11841;49.368;20.962;2023-05-16T12:16:22;95459.69;;;15.94;88.47
23339;BME280;11841;49.368;20.962;2023-05-16T12:19:08;95455.94;;;15.95;89.18
23339;BME280;11841;49.368;20.962;2023-05-16T12:21:54;95446.22;;;15.84;91.96
23339;BME280;11841;49.368;20.962;2023-05-16T12:24:39;95441.09;;;15.78;92.46
23339;BME280;11841;49.368;20.962;2023-05-16T12:27:25;95444.00;;;15.71;93.80
23339;BME280;11841;49.368;20.962;2023-05-16T12:30:11;95429.03;;;15.75;93.65
23339;BME280;11841;49.368;20.962;2023-05-16T12:32:58;95433.88;;;15.78;93.39
23339;BME280;11841;49.368;20.962;2023-05-16T12:35:45;95440.28;;;15.77;94.07
23339;BME280;11841;49.368;20.962;2023-05-16T12:38:32;95444.78;;;15.71;94.77
23339;BME280;11841;49.368;20.962;2023-05-16T12:41:21;95431.94;;;15.68;96.52
23339;BME280;11841;49.368;20.962;2023-05-16T12:44:17;95441.19;;;15.56;97.16
23339;BME280;11841;49.368;20.962;2023-05-16T12:47:10;95432.63;;;15.54;97.33
23339;BME280;11841;49.368;20.962;2023-05-16T12:49:55;95430.72;;;15.54;98.35
23339;BME280;11841;49.368;20.962;2023-05-16T12:52:52;95433.72;;;15.58;98.20
23339;BME280;11841;49.368;20.962;2023-05-16T12:55:37;95439.88;;;15.58;97.58
23339;BME280;11841;49.368;20.962;2023-05-16T12:58:22;95431.59;;;15.60;97.02
23339;BME280;11841;49.368;20.962;2023-05-16T13:01:08;95433.72;;;15.58;97.40
23339;BME280;11841;49.368;20.962;2023-05-16T13:03:53;95431.28;;;15.56;97.79
23339;BME280;11841;49.368;20.962;2023-05-16T13:06:39;95436.94;;;15.60;97.09
23339;BME280;11841;49.368;20.962;2023-05-16T13:09:42;95438.00;;;15.59;96.44
23339;BME280;11841;49.368;20.962;2023-05-16T13:12:27;95440.69;;;15.59;95.86
23339;BME280;11841;49.368;20.962;2023-05-16T13:15:13;95443.78;;;15.51;96.08
23339;BME280;11841;49.368;20.962;2023-05-16T13:17:59;95444.03;;;15.49;96.00
23339;BME280;11841;49.368;20.962;2023-05-16T13:20:44;95440.59;;;15.49;95.65
23339;BME280;11841;49.368;20.962;2023-05-16T13:23:30;95440.03;;;15.47;95.31
23339;BME280;11841;49.368;20.962;2023-05-16T13:26:15;95442.69;;;15.47;95.62
23339;BME280;11841;49.368;20.962;2023-05-16T13:29:00;95439.03;;;15.31;96.60
23339;BME280;11841;49.368;20.962;2023-05-16T13:31:46;95437.44;;;15.30;96.73
23339;BME280;11841;49.368;20.962;2023-05-16T13:34:31;95426.47;;;15.27;97.29
23339;BME280;11841;49.368;20.962;2023-05-16T13:37:17;95427.75;;;15.24;97.46
23339;BME280;11841;49.368;20.962;2023-05-16T13:40:03;95426.94;;;15.24;97.46
23339;BME280;11841;49.368;20.962;2023-05-16T13:42:49;95428.56;;;15.25;97.39
23339;BME280;11841;49.368;20.962;2023-05-16T13:45:34;95428.00;;;15.23;97.14
23339;BME280;11841;49.368;20.962;2023-05-16T13:48:23;95422.09;;;15.21;97.02
23339;BME280;11841;49.368;20.962;2023-05-16T13:51:09;95421.53;;;15.19;97.05
23339;BME280;11841;49.368;20.962;2023-05-16T13:53:55;95417.28;;;15.18;97.19
23339;BME280;11841;49.368;20.962;2023-05-16T13:56:41;95414.03;;;15.16;97.53
23339;BME280;11841;49.368;20.962;2023-05-16T13:59:26;95408.56;;;15.01;98.43
23339;BME280;11841;49.368;20.962;2023-05-16T14:02:32;95411.00;;;14.81;98.59
23339;BME280;11841;49.368;20.962;2023-05-16T14:05:17;95407.66;;;14.69;100.00
23339;BME280;11841;49.368;20.962;2023-05-16T14:08:03;95415.03;;;14.62;100.00
23339;BME280;11841;49.368;20.962;2023-05-16T14:10:50;95421.38;;;14.56;100.00
23339;BME280;11841;49.368;20.962;2023-05-16T14:13:36;95408.22;;;14.49;100.00
23339;BME280;11841;49.368;20.962;2023-05-16T14:16:24;95416.47;;;14.47;100.00
23339;BME280;11841;49.368;20.962;2023-05-16T14:19:10;95418.28;;;14.42;100.00
23339;BME280;11841;49.368;20.962;2023-05-16T14:21:56;95410.53;;;14.40;100.00
23339;BME280;11841;49.368;20.962;2023-05-16T14:24:41;95412.44;;;14.45;100.00
23339;BME280;11841;49.368;20.962;2023-05-16T14:27:27;95403.56;;;14.39;100.00
23339;BME280;11841;49.368;20.962;2023-05-16T14:30:12;95396.63;;;14.38;100.00
23339;BME280;11841;49.368;20.962;2023-05-16T14:32:58;95399.22;;;14.33;100.00
23339;BME280;11841;49.368;20.962;2023-05-16T14:35:43;95392.25;;;14.32;100.00
23339;BME280;11841;49.368;20.962;2023-05-16T14:38:29;95388.69;;;14.43;100.00
23339;BME280;11841;49.368;20.962;2023-05-16T14:41:15;95391.28;;;14.38;100.00